Time;durP1;ratioP1;P1;durP2;ratioP2;P2;SDS_P1;SDS_P2;PMS_P1;PMS_P2;Temp;Humidity;BMP_temperature;BMP_pressure;BME280_temperature;BME280_humidity;BME280_pressure;Samples;Min_cycle;Max_cycle;Signal;HPM_P1;HPM_P2
2022/06/22 00:00:24;;;;;;;3.03;1.10;;;;;;;;;;4998307;28;92890;-63
2022/06/22 00:02:52;;;;;;;3.30;1.25;;;;;;;;;;4993623;28;94884;-63
2022/06/22 00:05:23;;;;;;;2.08;1.20;;;;;;;;;;4995005;28;95710;-63
2022/06/22 00:07:51;;;;;;;1.10;1.00;;;;;;;;;;4995294;28;93498;-63
2022/06/22 00:10:29;;;;;;;1.83;1.23;;;;;;;;;;4994736;28;92582;-63
2022/06/22 00:12:56;;;;;;;1.60;1.10;;;;;;;;;;4995183;28;93379;-63
2022/06/22 00:15:31;;;;;;;1.02;0.85;;;;;;;;;;4995058;28;93520;-63
2022/06/22 00:17:57;;;;;;;1.33;1.08;;;;;;;;;;4995097;28;92625;-63
2022/06/22 00:20:31;;;;;;;1.23;1.08;;;;;;;;;;4995841;28;93409;-63
2022/06/22 00:23:09;;;;;;;0.93;0.93;;;;;;;;;;4997945;28;93540;-63
2022/06/22 00:25:36;;;;;;;2.28;1.25;;;;;;;;;;4995216;28;93005;-63
2022/06/22 00:28:21;;;;;;;2.00;0.98;;;;;;;;;;4993020;28;95895;-63
2022/06/22 00:30:47;;;;;;;1.88;1.10;;;;;;;;;;4994341;28;92682;-62
2022/06/22 00:33:21;;;;;;;1.33;1.17;;;;;;;;;;4994730;28;94234;-64
2022/06/22 00:35:56;;;;;;;1.10;1.00;;;;;;;;;;4994589;28;93597;-63
2022/06/22 00:38:28;;;;;;;2.45;1.10;;;;;;;;;;4994805;28;92482;-63
2022/06/22 00:40:56;;;;;;;1.50;1.10;;;;;;;;;;4994724;28;93152;-63
2022/06/22 00:43:26;;;;;;;1.10;1.00;;;;;;;;;;4994770;28;94335;-63
2022/06/22 00:45:53;;;;;;;1.60;1.23;;;;;;;;;;4997794;28;91647;-63
2022/06/22 00:48:27;;;;;;;1.52;1.20;;;;;;;;;;4994642;28;94284;-63
2022/06/22 00:51:06;;;;;;;1.60;1.10;;;;;;;;;;4995057;28;92460;-63
2022/06/22 00:53:37;;;;;;;1.20;1.10;;;;;;;;;;4993349;28;95043;-63
2022/06/22 00:56:22;;;;;;;1.80;1.00;;;;;;;;;;4994148;28;94475;-63
2022/06/22 00:58:51;;;;;;;1.98;1.00;;;;;;;;;;4994972;28;92368;-63
2022/06/22 01:01:20;;;;;;;1.50;1.00;;;;;;;;;;4994484;28;93309;-63
2022/06/22 01:04:06;;;;;;;1.75;1.33;;;;;;;;;;4992670;28;93438;-63
2022/06/22 01:06:48;;;;;;;2.30;1.20;;;;;;;;;;4994336;28;92366;-63
2022/06/22 01:09:31;;;;;;;1.63;0.98;;;;;;;;;;4997652;28;93167;-63
2022/06/22 01:12:22;;;;;;;1.60;1.13;;;;;;;;;;4994552;28;91684;-63
2022/06/22 01:14:55;;;;;;;2.22;1.13;;;;;;;;;;4994856;28;94520;-63
2022/06/22 01:17:37;;;;;;;1.30;1.20;;;;;;;;;;4994633;28;93458;-64
2022/06/22 01:20:06;;;;;;;1.73;1.27;;;;;;;;;;4992441;28;94942;-64
2022/06/22 01:22:36;;;;;;;1.17;1.10;;;;;;;;;;4994314;28;95657;-63
2022/06/22 01:25:14;;;;;;;1.40;1.23;;;;;;;;;;4994142;28;93518;-63
2022/06/22 01:27:41;;;;;;;1.08;0.98;;;;;;;;;;4994468;28;92460;-63
2022/06/22 01:30:28;;;;;;;1.55;1.10;;;;;;;;;;4997404;28;94374;-63
2022/06/22 01:32:55;;;;;;;1.30;1.10;;;;;;;;;;4994427;28;92534;-63
2022/06/22 01:35:21;;;;;;;1.20;1.10;;;;;;;;;;4994414;28;92765;-63
2022/06/22 01:37:48;;;;;;;2.88;1.10;;;;;;;;;;4994218;28;92571;-62
2022/06/22 01:40:15;;;;;;;1.52;1.10;;;;;;;;;;4994195;28;93754;-63
2022/06/22 01:43:01;;;;;;;1.77;1.20;;;;;;;;;;4994585;28;92893;-63
2022/06/22 01:45:45;;;;;;;1.17;1.08;;;;;;;;;;4991849;28;95690;-63
2022/06/22 01:48:15;;;;;;;1.52;1.10;;;;;;;;;;4994083;28;92410;-63
2022/06/22 01:50:53;;;;;;;1.02;0.93;;;;;;;;;;4997437;28;94110;-64
2022/06/22 01:53:38;;;;;;;1.00;1.00;;;;;;;;;;5000224;28;93389;-63
2022/06/22 01:56:12;;;;;;;1.13;1.08;;;;;;;;;;4997373;28;93547;-63
2022/06/22 01:59:17;;;;;;;1.42;1.00;;;;;;;;;;4997110;28;93200;-63
2022/06/22 02:01:52;;;;;;;2.17;1.30;;;;;;;;;;4935597;28;92379;-63
2022/06/22 02:04:29;;;;;;;0.90;0.90;;;;;;;;;;4936254;28;94412;-64
2022/06/22 02:09:55;;;;;;;1.33;1.00;;;;;;;;;;4935856;28;92544;-63
2022/06/22 02:12:27;;;;;;;1.23;0.95;;;;;;;;;;4933402;28;96064;-63
2022/06/22 02:15:02;;;;;;;1.50;1.13;;;;;;;;;;4935839;28;94861;-63
2022/06/22 02:17:30;;;;;;;1.15;1.00;;;;;;;;;;4938412;28;92697;-63
2022/06/22 02:20:15;;;;;;;1.92;0.93;;;;;;;;;;4935513;28;93506;-64
2022/06/22 02:22:41;;;;;;;1.65;1.05;;;;;;;;;;4935662;28;92575;-63
2022/06/22 02:25:08;;;;;;;3.35;1.30;;;;;;;;;;4935858;28;94141;-64
2022/06/22 02:27:34;;;;;;;0.90;0.90;;;;;;;;;;4935328;28;93896;-65
2022/06/22 02:30:00;;;;;;;1.27;1.15;;;;;;;;;;4936100;28;91708;-63
2022/06/22 02:32:29;;;;;;;1.63;1.15;;;;;;;;;;4943060;28;92483;-63
2022/06/22 02:34:56;;;;;;;1.30;1.20;;;;;;;;;;4977009;28;94612;-63
2022/06/22 02:37:24;;;;;;;1.20;1.10;;;;;;;;;;4975183;28;94848;-63
2022/06/22 02:39:53;;;;;;;1.23;1.00;;;;;;;;;;4979768;28;96655;-63
2022/06/22 02:45:08;;;;;;;1.08;0.98;;;;;;;;;;4977787;28;93006;-63
2022/06/22 02:47:44;;;;;;;1.00;0.95;;;;;;;;;;4996226;28;93393;-63
2022/06/22 02:50:33;;;;;;;1.20;1.10;;;;;;;;;;4995478;28;92410;-63
2022/06/22 02:53:06;;;;;;;1.20;1.10;;;;;;;;;;4996481;28;93212;-64
2022/06/22 02:55:34;;;;;;;1.17;1.00;;;;;;;;;;4996881;28;92449;-63
2022/06/22 02:58:02;;;;;;;1.17;1.08;;;;;;;;;;4996368;28;92424;-63
2022/06/22 03:00:38;;;;;;;0.75;0.75;;;;;;;;;;4996056;28;93145;-64
2022/06/22 03:03:09;;;;;;;1.00;1.00;;;;;;;;;;4997470;28;96681;-63
2022/06/22 03:05:37;;;;;;;0.90;0.90;;;;;;;;;;4996281;28;95947;-63
2022/06/22 03:08:04;;;;;;;2.60;1.20;;;;;;;;;;4996139;28;93465;-63
2022/06/22 03:10:34;;;;;;;0.90;0.82;;;;;;;;;;4996192;28;92405;-63
2022/06/22 03:13:00;;;;;;;1.13;1.13;;;;;;;;;;4996288;28;94114;-63
2022/06/22 03:15:29;;;;;;;1.00;1.00;;;;;;;;;;4995928;28;93415;-63
2022/06/22 03:17:56;;;;;;;1.20;1.10;;;;;;;;;;4996120;28;92466;-63
2022/06/22 03:20:25;;;;;;;1.52;1.20;;;;;;;;;;4996873;28;91761;-63
2022/06/22 03:22:53;;;;;;;0.98;0.98;;;;;;;;;;4995757;28;93514;-63
2022/06/22 03:25:26;;;;;;;1.13;0.98;;;;;;;;;;4999226;28;92438;-63
2022/06/22 03:27:55;;;;;;;1.33;1.00;;;;;;;;;;4993260;28;96175;-63
2022/06/22 03:30:23;;;;;;;1.10;1.00;;;;;;;;;;4995910;28;92375;-63
2022/06/22 03:32:54;;;;;;;1.50;1.05;;;;;;;;;;4995804;28;93134;-63
2022/06/22 03:35:25;;;;;;;2.05;1.23;;;;;;;;;;4995721;28;93415;-63
2022/06/22 03:37:57;;;;;;;1.10;1.00;;;;;;;;;;4995520;28;92489;-63
2022/06/22 03:40:35;;;;;;;1.65;1.20;;;;;;;;;;4995294;28;93213;-63
2022/06/22 03:43:06;;;;;;;1.40;0.88;;;;;;;;;;4994346;28;93423;-63
2022/06/22 03:45:39;;;;;;;1.05;0.90;;;;;;;;;;4999084;28;91685;-63
2022/06/22 03:48:12;;;;;;;1.77;0.90;;;;;;;;;;4995642;28;94401;-63
2022/06/22 03:50:44;;;;;;;1.98;1.20;;;;;;;;;;4995681;28;92402;-63
2022/06/22 03:53:17;;;;;;;1.55;1.17;;;;;;;;;;4994007;28;95006;-63
2022/06/22 03:55:45;;;;;;;1.75;1.10;;;;;;;;;;4995453;28;94477;-63
2022/06/22 03:58:12;;;;;;;1.20;1.10;;;;;;;;;;4995262;28;92379;-63
2022/06/22 04:00:40;;;;;;;1.23;1.00;;;;;;;;;;4995575;28;94243;-63
2022/06/22 04:03:08;;;;;;;2.40;1.02;;;;;;;;;;4995088;28;94286;-63
2022/06/22 04:05:40;;;;;;;1.35;1.20;;;;;;;;;;4995289;28;93092;-63
2022/06/22 04:08:06;;;;;;;1.45;1.00;;;;;;;;;;4998464;28;93983;-63
2022/06/22 04:10:39;;;;;;;1.20;1.00;;;;;;;;;;4996016;28;91792;-63
2022/06/22 04:13:07;;;;;;;1.17;1.08;;;;;;;;;;4994682;28;92545;-63
2022/06/22 04:15:39;;;;;;;1.33;1.10;;;;;;;;;;4995067;28;93645;-63
2022/06/22 04:18:11;;;;;;;1.08;0.98;;;;;;;;;;4993263;28;94897;-63
2022/06/22 04:20:55;;;;;;;1.45;1.10;;;;;;;;;;4995484;28;97039;-63
2022/06/22 04:23:41;;;;;;;1.30;1.10;;;;;;;;;;4994778;28;93394;-63
2022/06/22 04:26:16;;;;;;;1.48;1.20;;;;;;;;;;4987010;28;92451;-63
2022/06/22 04:28:45;;;;;;;1.38;0.93;;;;;;;;;;4994620;28;92966;-63
2022/06/22 04:31:21;;;;;;;1.20;0.82;;;;;;;;;;4998029;28;93725;-63
2022/06/22 04:33:50;;;;;;;3.15;1.10;;;;;;;;;;4994995;28;93267;-63
2022/06/22 04:36:23;;;;;;;2.05;1.15;;;;;;;;;;4995302;28;92695;-63
2022/06/22 04:38:52;;;;;;;1.50;0.98;;;;;;;;;;4994943;28;92590;-65
2022/06/22 04:41:24;;;;;;;1.10;1.00;;;;;;;;;;4994888;28;93134;-64
2022/06/22 04:43:52;;;;;;;1.70;1.15;;;;;;;;;;4992937;28;95993;-63
2022/06/22 04:46:21;;;;;;;2.03;1.00;;;;;;;;;;4995063;28;92514;-64
2022/06/22 04:48:49;;;;;;;1.15;1.13;;;;;;;;;;4994897;28;94354;-63
2022/06/22 04:51:32;;;;;;;1.48;1.25;;;;;;;;;;4994539;28;93321;-63
2022/06/22 04:54:03;;;;;;;1.20;1.10;;;;;;;;;;4997823;28;92422;-63
2022/06/22 04:56:41;;;;;;;1.00;0.90;;;;;;;;;;4994511;28;93671;-63
2022/06/22 04:59:10;;;;;;;2.08;0.90;;;;;;;;;;4994653;28;92495;-63
2022/06/22 05:01:47;;;;;;;1.13;1.00;;;;;;;;;;4995352;28;92986;-63
2022/06/22 05:04:15;;;;;;;1.75;1.20;;;;;;;;;;4994107;28;93519;-63
2022/06/22 05:06:42;;;;;;;1.55;1.20;;;;;;;;;;4994595;28;92388;-63
2022/06/22 05:09:26;;;;;;;1.83;1.17;;;;;;;;;;4993015;28;94808;-63
2022/06/22 05:11:53;;;;;;;1.02;0.93;;;;;;;;;;4993780;28;93728;-63
2022/06/22 05:14:21;;;;;;;1.33;1.20;;;;;;;;;;4993564;28;92551;-63
2022/06/22 05:16:52;;;;;;;2.45;1.05;;;;;;;;;;4997409;28;94208;-63
2022/06/22 05:19:19;;;;;;;1.55;1.20;;;;;;;;;;4994305;28;92430;-63
2022/06/22 05:21:45;;;;;;;1.33;1.15;;;;;;;;;;4994671;28;94480;-63
2022/06/22 05:24:12;;;;;;;1.27;1.17;;;;;;;;;;4995656;28;93881;-63
2022/06/22 05:26:38;;;;;;;2.17;1.20;;;;;;;;;;4998764;28;91625;-63
2022/06/22 05:29:12;;;;;;;1.98;1.20;;;;;;;;;;4997922;28;93397;-63
2022/06/22 05:31:41;;;;;;;2.70;1.08;;;;;;;;;;4996595;28;93538;-63
2022/06/22 05:34:10;;;;;;;1.20;1.10;;;;;;;;;;4995883;28;94965;-63
2022/06/22 05:36:40;;;;;;;1.45;1.10;;;;;;;;;;5000530;28;95547;-63
2022/06/22 05:39:06;;;;;;;3.17;1.33;;;;;;;;;;4997619;28;92580;-64
2022/06/22 05:41:35;;;;;;;0.90;0.90;;;;;;;;;;4997316;28;92946;-63
2022/06/22 05:44:06;;;;;;;1.50;1.30;;;;;;;;;;4997164;28;93513;-64
2022/06/22 05:46:33;;;;;;;1.10;1.10;;;;;;;;;;4997515;28;92413;-63
2022/06/22 05:48:59;;;;;;;1.23;1.23;;;;;;;;;;4997293;28;92285;-63
2022/06/22 05:51:36;;;;;;;1.80;1.30;;;;;;;;;;4997842;28;92832;-63
2022/06/22 05:54:12;;;;;;;1.17;1.00;;;;;;;;;;4997002;28;92482;-64
2022/06/22 05:56:50;;;;;;;1.52;1.17;;;;;;;;;;4997527;28;92916;-63
2022/06/22 05:59:31;;;;;;;1.38;1.27;;;;;;;;;;4997564;28;96857;-64
2022/06/22 06:02:01;;;;;;;1.35;1.25;;;;;;;;;;4997387;28;96975;-63
2022/06/22 06:04:27;;;;;;;1.67;1.30;;;;;;;;;;4996433;28;93306;-63
2022/06/22 06:06:56;;;;;;;1.52;1.13;;;;;;;;;;4997213;28;92523;-63
2022/06/22 06:09:23;;;;;;;2.97;1.00;;;;;;;;;;4995818;28;93351;-63
2022/06/22 06:12:13;;;;;;;1.17;1.00;;;;;;;;;;4996858;28;93377;-63
2022/06/22 06:14:44;;;;;;;1.95;1.50;;;;;;;;;;4997138;28;92412;-63
2022/06/22 06:17:14;;;;;;;1.50;1.02;;;;;;;;;;4997361;28;93133;-63
2022/06/22 06:19:40;;;;;;;;;;;;;;;;;;4997803;28;94793;-63
2022/06/22 06:22:07;;;;;;;1.33;1.13;;;;;;;;;;5000922;28;118255;-63
2022/06/22 06:24:37;;;;;;;2.08;1.42;;;;;;;;;;4994935;28;95858;-62
2022/06/22 06:29:56;;;;;;;1.30;1.20;;;;;;;;;;4996994;28;94183;-63
2022/06/22 06:32:27;;;;;;;1.30;1.10;;;;;;;;;;4996506;28;94341;-63
2022/06/22 06:35:03;;;;;;;2.38;1.50;;;;;;;;;;4995321;28;92541;-63
2022/06/22 06:37:32;;;;;;;1.83;1.50;;;;;;;;;;4996840;28;93458;-63
2022/06/22 06:39:59;;;;;;;1.05;1.05;;;;;;;;;;4996160;28;93392;-63
2022/06/22 06:42:38;;;;;;;2.28;1.17;;;;;;;;;;4997793;28;91704;-63
2022/06/22 06:45:11;;;;;;;1.58;1.40;;;;;;;;;;4999458;28;94044;-63
2022/06/22 06:47:38;;;;;;;2.28;1.15;;;;;;;;;;4996821;28;92345;-63
2022/06/22 06:50:04;;;;;;;2.75;1.05;;;;;;;;;;4994149;28;94846;-65
2022/06/22 06:52:44;;;;;;;1.00;1.00;;;;;;;;;;4996332;28;92517;-63
2022/06/22 06:55:13;;;;;;;1.33;1.20;;;;;;;;;;4996519;28;92394;-63
2022/06/22 06:58:06;;;;;;;2.08;1.45;;;;;;;;;;4996616;28;93024;-63
2022/06/22 07:00:32;;;;;;;3.25;1.67;;;;;;;;;;4972286;28;93594;-63
2022/06/22 07:02:59;;;;;;;1.50;1.40;;;;;;;;;;4996293;28;92412;-63
2022/06/22 07:05:26;;;;;;;1.85;0.98;;;;;;;;;;4995464;28;92995;-63
2022/06/22 07:07:58;;;;;;;1.80;1.02;;;;;;;;;;4999749;28;92771;-63
2022/06/22 07:10:57;;;;;;;1.85;1.10;;;;;;;;;;4996272;28;92394;-64
2022/06/22 07:13:27;;;;;;;1.58;1.17;;;;;;;;;;4994664;28;93683;-63
2022/06/22 07:15:53;;;;;;;;;;;;;;;;;;4995133;28;94798;-63
2022/06/22 07:18:19;;;;;;;1.98;1.33;;;;;;;;;;4996811;28;125850;-63
2022/06/22 07:20:48;;;;;;;2.10;1.27;;;;;;;;;;4996064;28;94977;-63
2022/06/22 07:23:22;;;;;;;1.13;1.02;;;;;;;;;;4995947;28;92520;-63
2022/06/22 07:25:55;;;;;;;4.75;1.23;;;;;;;;;;4995985;28;94273;-63
2022/06/22 07:28:25;;;;;;;1.20;1.10;;;;;;;;;;4996127;28;93208;-64
2022/06/22 07:30:54;;;;;;;1.20;1.00;;;;;;;;;;4997967;28;92672;-63
2022/06/22 07:33:24;;;;;;;1.13;1.02;;;;;;;;;;4995100;28;93177;-63
2022/06/22 07:35:56;;;;;;;1.25;1.10;;;;;;;;;;4995942;28;92479;-63
2022/06/22 07:38:23;;;;;;;1.17;0.80;;;;;;;;;;4994830;28;93100;-61
2022/06/22 07:43:35;;;;;;;1.63;1.00;;;;;;;;;;4996408;28;92514;-62
2022/06/22 07:46:02;;;;;;;1.35;1.05;;;;;;;;;;4994650;28;93156;-62
2022/06/22 07:48:31;;;;;;;1.40;1.10;;;;;;;;;;4995295;28;93494;-62
2022/06/22 07:50:58;;;;;;;1.02;0.90;;;;;;;;;;4998669;28;92421;-61
2022/06/22 07:53:33;;;;;;;0.95;0.95;;;;;;;;;;4994336;28;94413;-62
2022/06/22 07:56:00;;;;;;;;;;;;;;;;;;4996095;28;92398;-61
2022/06/22 07:58:30;;;;;;;2.20;1.10;;;;;;;;;;4995081;28;123461;-61
2022/06/22 08:00:59;;;;;;;1.38;1.13;;;;;;;;;;4995175;28;93253;-62
2022/06/22 08:03:29;;;;;;;1.17;1.02;;;;;;;;;;4995178;28;92376;-62
2022/06/22 08:05:58;;;;;;;1.52;1.10;;;;;;;;;;4993727;28;94861;-62
2022/06/22 08:08:45;;;;;;;2.58;1.00;;;;;;;;;;4993677;28;93264;-61
2022/06/22 08:11:19;;;;;;;0.88;0.65;;;;;;;;;;4995078;28;92365;-62
2022/06/22 08:14:05;;;;;;;1.45;1.08;;;;;;;;;;4998368;28;94352;-62
2022/06/22 08:16:33;;;;;;;1.42;1.30;;;;;;;;;;4995230;28;92435;-62
2022/06/22 08:19:01;;;;;;;1.40;0.88;;;;;;;;;;4994945;28;93099;-62
2022/06/22 08:21:28;;;;;;;1.15;0.93;;;;;;;;;;4994947;28;93627;-61
2022/06/22 08:23:55;;;;;;;1.23;1.08;;;;;;;;;;4994444;28;91690;-61
2022/06/22 08:26:24;;;;;;;0.90;0.90;;;;;;;;;;4995327;28;93887;-61
2022/06/22 08:28:51;;;;;;;1.27;1.17;;;;;;;;;;4995219;28;94437;-62
2022/06/22 08:31:17;;;;;;;1.85;1.00;;;;;;;;;;4992414;28;95058;-62
2022/06/22 08:33:54;;;;;;;0.93;0.88;;;;;;;;;;4995071;28;94596;-62
2022/06/22 08:36:24;;;;;;;1.90;1.10;;;;;;;;;;4997753;28;93488;-62
2022/06/22 08:38:50;;;;;;;;;;;;;;;;;;4995495;28;93202;-61
2022/06/22 08:41:35;;;;;;;0.90;0.90;;;;;;;;;;4995425;28;124096;-62
2022/06/22 08:44:10;;;;;;;0.80;0.80;;;;;;;;;;4995160;28;92795;-61
2022/06/22 08:46:46;;;;;;;0.80;0.80;;;;;;;;;;4993758;28;94165;-62
2022/06/22 08:49:22;;;;;;;1.42;0.88;;;;;;;;;;4995048;28;91697;-62
2022/06/22 08:52:06;;;;;;;1.77;1.02;;;;;;;;;;4994891;28;92886;-61
2022/06/22 08:54:32;;;;;;;1.15;1.00;;;;;;;;;;4993796;28;94290;-61
2022/06/22 08:57:04;;;;;;;1.00;0.90;;;;;;;;;;4992845;28;96331;-62
2022/06/22 08:59:43;;;;;;;1.55;0.70;;;;;;;;;;5001542;28;92469;-62
2022/06/22 09:02:23;;;;;;;0.90;0.90;;;;;;;;;;4997885;28;93757;-62
2022/06/22 09:05:07;;;;;;;0.77;0.70;;;;;;;;;;4998122;28;92437;-62
2022/06/22 09:07:46;;;;;;;2.90;1.08;;;;;;;;;;4978079;28;92469;-61
2022/06/22 09:10:29;;;;;;;2.15;0.93;;;;;;;;;;4976706;28;93511;-62
2022/06/22 09:13:02;;;;;;;1.25;0.95;;;;;;;;;;4978136;28;92450;-62
2022/06/22 09:15:40;;;;;;;1.08;0.75;;;;;;;;;;4983814;28;95993;-61
2022/06/22 09:18:19;;;;;;;1.00;0.80;;;;;;;;;;4997796;28;94884;-61
2022/06/22 09:20:53;;;;;;;0.80;0.80;;;;;;;;;;4998381;28;92316;-62
2022/06/22 09:23:35;;;;;;;0.80;0.80;;;;;;;;;;4999231;28;94819;-61
2022/06/22 09:26:07;;;;;;;1.88;0.80;;;;;;;;;;4997965;28;92412;-62
2022/06/22 09:28:39;;;;;;;1.20;1.00;;;;;;;;;;4997428;28;93165;-62
2022/06/22 09:31:23;;;;;;;1.02;0.90;;;;;;;;;;4997890;28;93620;-62
2022/06/22 09:34:08;;;;;;;2.15;1.10;;;;;;;;;;4997565;28;92456;-62
2022/06/22 09:36:34;;;;;;;1.10;1.00;;;;;;;;;;4997694;28;93187;-62
2022/06/22 09:39:19;;;;;;;0.95;0.88;;;;;;;;;;4997518;28;94973;-62
2022/06/22 09:41:56;;;;;;;0.77;0.65;;;;;;;;;;4998122;28;91718;-62
2022/06/22 09:44:28;;;;;;;0.73;0.73;;;;;;;;;;4997641;28;92396;-61
2022/06/22 09:47:06;;;;;;;1.30;0.70;;;;;;;;;;5000107;28;93556;-62
2022/06/22 09:49:52;;;;;;;0.80;0.75;;;;;;;;;;4995874;28;94860;-62
2022/06/22 09:52:26;;;;;;;0.73;0.73;;;;;;;;;;4995836;28;93815;-62
2022/06/22 09:57:40;;;;;;;1.70;0.82;;;;;;;;;;4997060;28;92937;-62
2022/06/22 10:00:32;;;;;;;0.70;0.70;;;;;;;;;;4997220;28;93310;-62
2022/06/22 10:03:17;;;;;;;3.65;1.23;;;;;;;;;;4980689;28;92415;-62
2022/06/22 10:06:02;;;;;;;0.80;0.80;;;;;;;;;;4997518;28;94362;-61
2022/06/22 10:08:47;;;;;;;1.13;1.02;;;;;;;;;;5000448;28;91926;-62
2022/06/22 10:11:32;;;;;;;0.95;0.95;;;;;;;;;;4996178;28;92876;-61
2022/06/22 10:14:01;;;;;;;0.80;0.80;;;;;;;;;;4996908;28;93346;-62
2022/06/22 10:16:30;;;;;;;0.87;0.87;;;;;;;;;;4995411;28;94853;-62
2022/06/22 10:19:00;;;;;;;0.80;0.80;;;;;;;;;;4996770;28;95626;-62
2022/06/22 10:21:29;;;;;;;0.90;0.90;;;;;;;;;;4997176;28;93306;-62
2022/06/22 10:24:07;;;;;;;0.88;0.88;;;;;;;;;;4997297;28;92440;-62
2022/06/22 10:26:43;;;;;;;0.95;0.85;;;;;;;;;;4995612;28;92439;-62
2022/06/22 10:29:27;;;;;;;1.45;0.90;;;;;;;;;;4996417;28;93249;-62
2022/06/22 10:32:03;;;;;;;0.70;0.70;;;;;;;;;;5000233;28;92866;-61
2022/06/22 10:34:38;;;;;;;0.82;0.80;;;;;;;;;;4995970;28;93636;-62
2022/06/22 10:37:23;;;;;;;1.23;1.02;;;;;;;;;;4997364;28;92451;-62
2022/06/22 10:40:12;;;;;;;1.05;0.90;;;;;;;;;;4997091;28;93020;-61
2022/06/22 10:45:48;;;;;;;1.17;1.00;;;;;;;;;;4996045;28;92451;-61
2022/06/22 10:48:34;;;;;;;1.08;0.98;;;;;;;;;;4996868;28;94495;-61
2022/06/22 10:51:03;;;;;;;1.17;1.10;;;;;;;;;;4996526;28;93376;-61
2022/06/22 10:53:40;;;;;;;0.82;0.82;;;;;;;;;;4996955;28;92525;-62
2022/06/22 10:56:15;;;;;;;1.25;1.00;;;;;;;;;;4998128;28;93046;-62
2022/06/22 10:58:44;;;;;;;1.33;1.23;;;;;;;;;;4996643;28;92516;-62
2022/06/22 11:01:30;;;;;;;1.20;1.10;;;;;;;;;;4995844;28;93454;-61
2022/06/22 11:04:06;;;;;;;2.42;1.52;;;;;;;;;;4994906;28;93889;-62
2022/06/22 11:06:42;;;;;;;1.10;1.00;;;;;;;;;;4996346;28;92505;-61
2022/06/22 11:09:18;;;;;;;1.77;1.30;;;;;;;;;;4994920;28;94846;-61
2022/06/22 11:11:58;;;;;;;0.90;0.90;;;;;;;;;;4995677;28;94532;-62
2022/06/22 11:14:42;;;;;;;2.40;1.23;;;;;;;;;;4996284;28;93346;-62
2022/06/22 11:17:27;;;;;;;1.42;1.08;;;;;;;;;;4995994;28;92879;-61
2022/06/22 11:19:54;;;;;;;2.22;1.20;;;;;;;;;;4999123;28;94808;-61
2022/06/22 11:22:27;;;;;;;0.80;0.80;;;;;;;;;;4996194;28;93209;-61
2022/06/22 11:24:57;;;;;;;1.52;1.15;;;;;;;;;;4994815;28;94396;-62
2022/06/22 11:30:51;;;;;;;1.58;1.20;;;;;;;;;;4995671;28;92501;-61
2022/06/22 11:33:17;;;;;;;1.48;1.30;;;;;;;;;;4995665;28;93453;-62
2022/06/22 11:36:02;;;;;;;2.35;1.80;;;;;;;;;;4993978;28;94813;-62
2022/06/22 11:38:31;;;;;;;1.30;1.20;;;;;;;;;;4995971;28;95424;-62
2022/06/22 11:41:03;;;;;;;1.15;1.00;;;;;;;;;;4995684;28;93562;-62
2022/06/22 11:43:29;;;;;;;1.40;1.30;;;;;;;;;;4998768;28;92498;-62
2022/06/22 11:46:01;;;;;;;2.15;1.48;;;;;;;;;;4995405;28;93489;-62
2022/06/22 11:48:47;;;;;;;1.85;1.63;;;;;;;;;;4995784;28;92474;-61
2022/06/22 11:51:31;;;;;;;1.15;1.05;;;;;;;;;;4995404;28;92386;-61
2022/06/22 11:53:57;;;;;;;1.83;1.27;;;;;;;;;;4995987;28;92775;-61
2022/06/22 11:56:23;;;;;;;1.65;1.55;;;;;;;;;;4995365;28;92364;-62
2022/06/22 11:58:52;;;;;;;4.13;1.60;;;;;;;;;;4995672;28;93247;-62
2022/06/22 12:01:34;;;;;;;2.58;1.55;;;;;;;;;;4993861;28;98755;-62
2022/06/22 12:04:03;;;;;;;2.30;1.40;;;;;;;;;;4995758;28;92506;-62
2022/06/22 12:06:29;;;;;;;1.15;1.05;;;;;;;;;;4998176;28;93980;-61
2022/06/22 12:09:02;;;;;;;1.60;1.40;;;;;;;;;;4995608;28;92480;-62
2022/06/22 12:11:29;;;;;;;1.25;1.15;;;;;;;;;;4995050;28;93350;-62
2022/06/22 12:17:31;;;;;;;1.98;1.70;;;;;;;;;;4952581;28;92547;-62
2022/06/22 12:20:06;;;;;;;1.50;1.40;;;;;;;;;;4954265;28;94167;-62
2022/06/22 12:22:50;;;;;;;1.30;1.20;;;;;;;;;;4953670;28;94507;-61
2022/06/22 12:25:24;;;;;;;1.00;0.90;;;;;;;;;;4953574;28;92550;-62
2022/06/22 12:28:00;;;;;;;1.67;1.55;;;;;;;;;;4954708;28;94989;-62
2022/06/22 12:30:26;;;;;;;1.67;1.35;;;;;;;;;;4953091;28;92975;-62
2022/06/22 12:32:55;;;;;;;0.95;0.93;;;;;;;;;;4952861;28;93216;-62
2022/06/22 12:35:40;;;;;;;1.40;0.90;;;;;;;;;;4953592;28;94602;-62
2022/06/22 12:38:22;;;;;;;2.75;2.10;;;;;;;;;;4953138;28;92428;-62
2022/06/22 12:41:03;;;;;;;1.20;1.13;;;;;;;;;;4953024;28;93192;-62
2022/06/22 12:43:56;;;;;;;1.10;1.10;;;;;;;;;;4953445;28;94856;-63
2022/06/22 12:46:31;;;;;;;1.83;1.33;;;;;;;;;;4953020;28;91866;-61
2022/06/22 12:49:16;;;;;;;1.40;1.30;;;;;;;;;;4953175;28;92623;-62
2022/06/22 12:51:46;;;;;;;2.10;1.25;;;;;;;;;;4955935;28;93470;-61
2022/06/22 12:54:19;;;;;;;1.27;1.02;;;;;;;;;;4973739;28;94765;-61
2022/06/22 12:56:51;;;;;;;1.20;1.10;;;;;;;;;;4974549;28;93616;-62
2022/06/22 12:59:23;;;;;;;1.20;1.10;;;;;;;;;;4974915;28;92492;-62
2022/06/22 13:01:49;;;;;;;1.48;1.30;;;;;;;;;;4975283;28;92322;-61
2022/06/22 13:04:18;;;;;;;1.48;1.38;;;;;;;;;;4974668;28;93562;-62
2022/06/22 13:06:50;;;;;;;1.60;1.50;;;;;;;;;;4989552;28;92438;-62
2022/06/22 13:09:17;;;;;;;1.60;1.50;;;;;;;;;;4994240;28;93219;-62
2022/06/22 13:11:45;;;;;;;1.77;1.60;;;;;;;;;;4994251;28;91871;-62
2022/06/22 13:14:24;;;;;;;1.67;1.58;;;;;;;;;;4997751;28;92393;-62
2022/06/22 13:17:04;;;;;;;1.17;1.13;;;;;;;;;;4994246;28;93715;-62
2022/06/22 13:19:49;;;;;;;2.20;1.88;;;;;;;;;;4993090;28;94858;-62
2022/06/22 13:22:22;;;;;;;1.02;0.90;;;;;;;;;;4994465;28;94341;-61
2022/06/22 13:24:52;;;;;;;2.67;2.47;;;;;;;;;;4994485;28;94829;-62
2022/06/22 13:27:26;;;;;;;1.75;1.30;;;;;;;;;;4994093;28;92472;-62
2022/06/22 13:29:58;;;;;;;1.27;1.17;;;;;;;;;;4994368;28;93224;-61
2022/06/22 13:32:26;;;;;;;2.30;2.13;;;;;;;;;;4994038;28;93879;-62
2022/06/22 13:34:55;;;;;;;2.25;2.03;;;;;;;;;;4994478;28;92392;-61
2022/06/22 13:37:23;;;;;;;1.60;1.50;;;;;;;;;;4997495;28;93279;-61
2022/06/22 13:40:09;;;;;;;1.27;1.17;;;;;;;;;;4994227;28;92375;-61
2022/06/22 13:42:59;;;;;;;2.08;1.50;;;;;;;;;;4994327;28;94150;-63
2022/06/22 13:45:25;;;;;;;1.52;1.42;;;;;;;;;;4994033;28;95884;-62
2022/06/22 13:48:10;;;;;;;1.80;1.70;;;;;;;;;;4997423;28;92461;-62
2022/06/22 13:51:09;;;;;;;1.75;1.63;;;;;;;;;;4997548;28;93465;-61
2022/06/22 13:53:58;;;;;;;2.13;1.90;;;;;;;;;;4997574;28;93515;-62
2022/06/22 13:56:36;;;;;;;1.58;1.48;;;;;;;;;;4997449;28;93351;-62
2022/06/22 13:59:08;;;;;;;2.20;1.88;;;;;;;;;;4997455;28;93301;-62
2022/06/22 14:01:39;;;;;;;1.50;1.40;;;;;;;;;;4999757;28;93487;-62
2022/06/22 14:04:08;;;;;;;1.25;1.15;;;;;;;;;;4997658;28;93444;-61
2022/06/22 14:06:38;;;;;;;1.48;1.13;;;;;;;;;;4996799;28;93785;-62
2022/06/22 14:09:26;;;;;;;2.53;2.33;;;;;;;;;;4997247;28;92378;-61
2022/06/22 14:12:09;;;;;;;1.70;1.60;;;;;;;;;;4995190;28;94783;-62
2022/06/22 14:14:56;;;;;;;1.60;1.35;;;;;;;;;;4997399;28;93618;-62
2022/06/22 14:17:26;;;;;;;1.77;1.65;;;;;;;;;;4977115;28;92407;-62
2022/06/22 14:19:52;;;;;;;3.28;2.97;;;;;;;;;;4977580;28;93836;-62
2022/06/22 14:22:28;;;;;;;3.58;3.17;;;;;;;;;;4976356;28;93457;-62
2022/06/22 14:24:59;;;;;;;2.08;1.88;;;;;;;;;;4980171;28;92359;-62
2022/06/22 14:27:43;;;;;;;1.38;1.27;;;;;;;;;;4976373;28;93749;-62
2022/06/22 14:30:19;;;;;;;1.38;1.13;;;;;;;;;;4977251;28;91777;-62
2022/06/22 14:33:00;;;;;;;4.00;3.13;;;;;;;;;;4976647;28;92490;-61
2022/06/22 14:35:26;;;;;;;2.03;1.83;;;;;;;;;;4975381;28;93639;-62
2022/06/22 14:38:01;;;;;;;1.50;1.20;;;;;;;;;;4975198;28;94858;-62
2022/06/22 14:40:45;;;;;;;2.05;1.95;;;;;;;;;;4976956;28;95522;-62
2022/06/22 14:43:19;;;;;;;2.25;2.08;;;;;;;;;;4991793;28;93911;-62
2022/06/22 14:45:50;;;;;;;4.38;3.22;;;;;;;;;;4987232;28;92911;-62
2022/06/22 14:48:33;;;;;;;2.28;2.05;;;;;;;;;;4996569;28;93503;-62
2022/06/22 14:51:09;;;;;;;1.60;1.50;;;;;;;;;;4995196;28;92480;-62
2022/06/22 14:53:50;;;;;;;5.95;5.38;;;;;;;;;;4996308;28;93283;-62
2022/06/22 14:56:21;;;;;;;3.15;2.80;;;;;;;;;;4996387;28;92934;-62
2022/06/22 14:58:52;;;;;;;4.32;3.92;;;;;;;;;;4996699;28;92534;-62
2022/06/22 15:01:35;;;;;;;5.07;4.10;;;;;;;;;;4996576;28;94527;-62
2022/06/22 15:04:01;;;;;;;0.90;0.90;;;;;;;;;;4994363;28;95645;-62
2022/06/22 15:06:47;;;;;;;3.60;2.92;;;;;;;;;;4996238;28;92437;-62
2022/06/22 15:09:13;;;;;;;2.70;2.50;;;;;;;;;;4999129;28;93351;-62
2022/06/22 15:14:35;;;;;;;4.38;3.95;;;;;;;;;;4996344;28;93168;-61
2022/06/22 15:17:05;;;;;;;3.22;3.03;;;;;;;;;;4995945;28;93423;-62
2022/06/22 15:19:31;;;;;;;;;;;;;;;;;;4997006;28;92399;-61
2022/06/22 15:22:01;;;;;;;4.22;3.38;;;;;;;;;;4997476;28;123661;-62
2022/06/22 15:25:06;;;;;;;5.22;4.75;;;;;;;;;;4996003;28;93069;-62
2022/06/22 15:27:35;;;;;;;4.80;4.40;;;;;;;;;;4995715;28;92518;-62
2022/06/22 15:30:04;;;;;;;4.65;4.25;;;;;;;;;;4993266;28;94910;-62
2022/06/22 15:32:34;;;;;;;1.35;1.30;;;;;;;;;;4998967;28;94905;-61
2022/06/22 15:35:19;;;;;;;4.07;3.67;;;;;;;;;;4995765;28;93328;-62
2022/06/22 15:37:54;;;;;;;2.25;1.85;;;;;;;;;;4996154;28;96340;-62
2022/06/22 15:40:24;;;;;;;3.97;3.58;;;;;;;;;;4995631;28;92370;-62
2022/06/22 15:43:12;;;;;;;3.05;2.85;;;;;;;;;;4996062;28;93284;-62
2022/06/22 15:45:41;;;;;;;3.40;3.10;;;;;;;;;;4995337;28;93133;-62
2022/06/22 15:48:42;;;;;;;3.95;3.65;;;;;;;;;;4995939;28;91757;-62